createdAt,value
2022-10-06T00:02:24.522Z,7.84
2022-10-06T00:04:51.097Z,7.94
2022-10-06T00:07:17.857Z,7.77
2022-10-06T00:09:44.456Z,7.83
2022-10-06T00:12:11.099Z,6.76
2022-10-06T00:14:37.986Z,7.20
2022-10-06T00:17:04.724Z,7.18
2022-10-06T00:19:31.455Z,7.16
2022-10-06T00:21:58.155Z,7.30
2022-10-06T00:24:24.762Z,7.08
2022-10-06T00:26:51.491Z,7.25
2022-10-06T00:29:18.866Z,7.00
2022-10-06T00:31:45.785Z,7.22
2022-10-06T00:34:12.991Z,7.17
2022-10-06T00:36:40.047Z,6.91
2022-10-06T00:39:06.697Z,4.08
2022-10-06T00:41:33.329Z,7.34
2022-10-06T00:44:00.091Z,7.19
2022-10-06T00:46:47.506Z,7.30
2022-10-06T00:49:36.863Z,7.37
2022-10-06T00:52:09.161Z,6.76
2022-10-06T00:54:36.514Z,7.45
2022-10-06T00:57:04.823Z,7.48
2022-10-06T00:59:31.902Z,6.99
2022-10-06T01:02:09.855Z,7.44
2022-10-06T01:04:40.998Z,7.37
2022-10-06T01:07:08.550Z,7.42
2022-10-06T01:09:35.470Z,7.37
2022-10-06T01:12:05.456Z,7.45
2022-10-06T01:14:33.127Z,7.13
2022-10-06T01:17:07.811Z,7.57
2022-10-06T01:19:49.227Z,7.51
2022-10-06T01:22:18.202Z,7.43
2022-10-06T01:24:47.655Z,7.34
2022-10-06T01:27:16.527Z,6.93
2022-10-06T01:29:43.316Z,7.50
2022-10-06T01:32:10.109Z,7.40
2022-10-06T01:34:36.801Z,7.23
2022-10-06T01:37:03.398Z,7.26
2022-10-06T01:39:30.026Z,6.34
2022-10-06T01:41:56.608Z,7.14
2022-10-06T01:44:23.187Z,7.26
2022-10-06T01:46:49.762Z,6.57
2022-10-06T01:49:16.397Z,7.19
2022-10-06T01:51:42.990Z,6.88
2022-10-06T01:54:09.546Z,7.17
2022-10-06T01:56:36.175Z,6.15
2022-10-06T01:59:02.738Z,6.25
2022-10-06T02:01:29.420Z,7.00
2022-10-06T02:03:56.132Z,6.71
2022-10-06T02:06:22.939Z,7.05
2022-10-06T02:08:49.568Z,6.88
2022-10-06T02:11:16.214Z,7.05
2022-10-06T02:13:42.805Z,7.03
2022-10-06T02:16:10.420Z,6.64
2022-10-06T02:18:37.090Z,6.57
2022-10-06T02:21:05.289Z,6.97
2022-10-06T02:23:32.443Z,6.71
2022-10-06T02:26:04.541Z,6.98
2022-10-06T02:28:32.298Z,6.69
2022-10-06T02:31:04.477Z,6.99
2022-10-06T02:33:31.631Z,6.79
2022-10-06T02:35:58.917Z,6.79
2022-10-06T02:38:28.903Z,6.87
2022-10-06T02:40:55.764Z,6.46
2022-10-06T02:43:22.442Z,6.83
2022-10-06T02:45:56.700Z,6.62
2022-10-06T02:48:24.608Z,6.66
2022-10-06T02:51:00.020Z,6.51
2022-10-06T02:53:27.089Z,5.92
2022-10-06T02:56:01.731Z,6.14
2022-10-06T02:58:30.348Z,6.14
2022-10-06T03:01:06.472Z,6.69
2022-10-06T03:03:35.302Z,5.83
2022-10-06T03:06:04.506Z,6.71
2022-10-06T03:08:32.028Z,6.45
2022-10-06T03:11:03.661Z,6.63
2022-10-06T03:13:31.132Z,5.51
2022-10-06T03:15:58.322Z,6.45
2022-10-06T03:18:25.297Z,6.40
2022-10-06T03:20:54.049Z,5.58
2022-10-06T03:23:20.724Z,4.42
2022-10-06T03:25:55.790Z,6.30
2022-10-06T03:28:22.381Z,5.21
2022-10-06T03:30:49.035Z,6.15
2022-10-06T03:33:15.588Z,6.01
2022-10-06T03:35:42.209Z,5.84
2022-10-06T03:38:08.766Z,6.04
2022-10-06T03:40:35.362Z,6.02
2022-10-06T03:43:02.042Z,6.04
2022-10-06T03:45:28.647Z,6.12
2022-10-06T03:47:55.591Z,6.15
2022-10-06T03:50:22.136Z,5.19
2022-10-06T03:52:51.408Z,5.80
2022-10-06T03:55:18.068Z,6.40
2022-10-06T03:57:44.793Z,6.45
2022-10-06T04:00:12.336Z,6.53
2022-10-06T04:02:38.957Z,6.05
2022-10-06T04:05:05.988Z,6.58
2022-10-06T04:07:32.573Z,6.30
2022-10-06T04:09:59.133Z,6.59
2022-10-06T04:12:25.753Z,6.24
2022-10-06T04:14:56.585Z,6.67
2022-10-06T04:17:26.457Z,6.65
2022-10-06T04:19:53.025Z,6.61
2022-10-06T04:22:19.614Z,6.68
2022-10-06T04:24:46.193Z,6.54
2022-10-06T04:27:27.679Z,6.76
2022-10-06T04:29:54.232Z,6.80
2022-10-06T04:32:20.864Z,6.75
2022-10-06T04:34:47.491Z,6.42
2022-10-06T04:37:14.071Z,6.48
2022-10-06T04:39:41.069Z,6.75
2022-10-06T04:42:07.681Z,6.05
2022-10-06T04:44:34.273Z,6.92
2022-10-06T04:47:01.404Z,6.88
2022-10-06T04:49:28.087Z,6.71
2022-10-06T04:51:54.687Z,7.12
2022-10-06T04:54:21.328Z,6.79
2022-10-06T04:56:47.900Z,7.30
2022-10-06T04:59:14.578Z,7.29
2022-10-06T05:01:41.173Z,7.16
2022-10-06T05:04:07.846Z,7.18
2022-10-06T05:06:41.228Z,7.60
2022-10-06T05:09:13.382Z,7.81
2022-10-06T05:11:40.148Z,7.70
2022-10-06T05:14:07.620Z,7.88
2022-10-06T05:16:34.672Z,8.07
2022-10-06T05:19:01.467Z,7.90
2022-10-06T05:21:32.259Z,8.12
2022-10-06T05:23:59.807Z,7.83
2022-10-06T05:26:30.943Z,8.33
2022-10-06T05:28:57.758Z,8.48
2022-10-06T05:31:29.897Z,8.54
2022-10-06T05:33:57.330Z,8.66
2022-10-06T05:36:30.447Z,8.82
2022-10-06T05:38:58.253Z,8.98
2022-10-06T05:41:25.720Z,9.20
2022-10-06T05:43:55.910Z,9.04
2022-10-06T05:46:28.578Z,9.53
2022-10-06T05:48:57.797Z,9.77
2022-10-06T05:51:31.157Z,9.32
2022-10-06T05:53:59.455Z,10.11
2022-10-06T05:56:28.679Z,10.16
2022-10-06T05:58:57.057Z,10.42
2022-10-06T06:01:35.413Z,10.68
2022-10-06T06:04:04.477Z,10.38
2022-10-06T06:06:35.113Z,10.95
2022-10-06T06:09:12.582Z,11.07
2022-10-06T06:11:41.522Z,11.27
2022-10-06T06:14:11.291Z,11.34
2022-10-06T06:16:39.501Z,11.56
2022-10-06T06:19:08.446Z,11.84
2022-10-06T06:21:35.669Z,11.96
2022-10-06T06:24:03.170Z,12.22
2022-10-06T06:26:34.603Z,12.40
2022-10-06T06:29:05.415Z,12.49
2022-10-06T06:31:35.264Z,12.62
2022-10-06T06:34:04.723Z,12.07
2022-10-06T06:36:35.709Z,12.94
2022-10-06T06:39:08.325Z,12.97
2022-10-06T06:41:40.060Z,13.39
2022-10-06T06:44:11.242Z,13.58
2022-10-06T06:46:39.351Z,13.73
2022-10-06T06:49:06.590Z,13.89
2022-10-06T06:51:41.495Z,14.05
2022-10-06T06:54:09.602Z,14.10
2022-10-06T06:56:36.833Z,14.18
2022-10-06T06:59:11.935Z,13.50
2022-10-06T07:01:47.386Z,14.20
2022-10-06T07:04:16.104Z,14.52
2022-10-06T07:06:57.031Z,14.69
2022-10-06T07:09:26.865Z,14.91
2022-10-06T07:11:55.094Z,15.07
2022-10-06T07:14:24.140Z,14.98
2022-10-06T07:17:09.296Z,15.17
2022-10-06T07:19:47.644Z,14.70
2022-10-06T07:22:35.390Z,15.60
2022-10-06T07:25:07.668Z,15.65
2022-10-06T07:27:38.500Z,15.79
2022-10-06T07:30:06.069Z,16.10
2022-10-06T07:32:33.088Z,15.67
2022-10-06T07:35:00.729Z,16.41
2022-10-06T07:37:29.026Z,16.24
2022-10-06T07:39:55.971Z,16.49
2022-10-06T07:42:22.591Z,16.86
2022-10-06T07:45:08.235Z,16.94
2022-10-06T07:47:38.271Z,17.03
2022-10-06T07:50:08.747Z,17.28
2022-10-06T07:52:39.417Z,16.96
2022-10-06T07:55:07.027Z,16.82
2022-10-06T07:57:34.874Z,17.43
2022-10-06T08:00:04.433Z,17.85
2022-10-06T08:02:34.719Z,17.25
2022-10-06T08:05:02.668Z,17.77
2022-10-06T08:07:29.257Z,17.95
2022-10-06T08:09:55.830Z,18.10
2022-10-06T08:12:34.682Z,18.19
2022-10-06T08:15:06.959Z,18.32
2022-10-06T08:17:36.801Z,17.08
2022-10-06T08:20:10.278Z,17.78
2022-10-06T08:22:38.847Z,17.99
2022-10-06T08:25:07.878Z,17.76
2022-10-06T08:27:35.767Z,18.30
2022-10-06T08:30:05.382Z,18.73
2022-10-06T08:32:32.929Z,18.34
2022-10-06T08:35:00.006Z,19.04
2022-10-06T08:37:27.427Z,19.25
2022-10-06T08:39:54.872Z,19.37
2022-10-06T08:42:34.733Z,18.83
2022-10-06T08:45:13.535Z,18.34
2022-10-06T08:47:50.260Z,19.54
2022-10-06T08:50:18.026Z,19.52
2022-10-06T08:52:47.638Z,19.58
2022-10-06T08:55:23.492Z,19.58
2022-10-06T08:58:02.089Z,19.66
2022-10-06T09:00:33.143Z,19.87
2022-10-06T09:03:02.110Z,19.58
2022-10-06T09:05:31.350Z,19.37
2022-10-06T09:08:04.080Z,20.12
2022-10-06T09:10:49.288Z,19.43
2022-10-06T09:13:29.821Z,20.14
2022-10-06T09:16:07.239Z,20.04
2022-10-06T09:19:07.598Z,19.83
2022-10-06T09:21:46.229Z,20.48
2022-10-06T09:24:22.323Z,20.46
2022-10-06T09:26:52.022Z,20.27
2022-10-06T09:29:18.746Z,19.51
2022-10-06T09:31:50.514Z,19.21
2022-10-06T09:34:20.375Z,19.94
2022-10-06T09:37:05.496Z,19.55
2022-10-06T09:39:37.261Z,20.20
2022-10-06T09:42:09.830Z,20.48
2022-10-06T09:44:59.044Z,20.84
2022-10-06T09:47:35.990Z,21.10
2022-10-06T09:50:14.315Z,21.26
2022-10-06T09:53:07.996Z,20.70
2022-10-06T09:55:37.581Z,21.38
2022-10-06T09:58:22.560Z,21.59
2022-10-06T10:01:01.103Z,21.75
2022-10-06T10:06:38.053Z,20.98
2022-10-06T10:09:21.757Z,21.09
2022-10-06T10:12:28.803Z,21.05
2022-10-06T10:15:03.999Z,20.60
2022-10-06T10:17:36.600Z,21.01
2022-10-06T10:20:08.395Z,21.13
2022-10-06T10:22:39.528Z,20.87
2022-10-06T10:25:24.760Z,21.51
2022-10-06T10:28:18.164Z,21.72
2022-10-06T10:31:01.259Z,21.08
2022-10-06T10:33:46.176Z,21.86
2022-10-06T10:36:25.878Z,22.23
2022-10-06T10:38:54.612Z,21.44
2022-10-06T10:41:25.635Z,22.31
2022-10-06T10:43:59.569Z,22.55
2022-10-06T10:46:38.962Z,22.29
2022-10-06T10:49:12.356Z,22.65
2022-10-06T10:51:58.587Z,22.66
2022-10-06T10:54:44.574Z,22.73
2022-10-06T10:57:17.947Z,20.98
2022-10-06T10:59:47.644Z,21.60
2022-10-06T11:02:22.153Z,21.72
2022-10-06T11:05:01.250Z,21.38
2022-10-06T11:07:39.166Z,21.91
2022-10-06T11:10:23.162Z,22.67
2022-10-06T11:13:14.928Z,22.37
2022-10-06T11:15:57.660Z,23.00
2022-10-06T11:18:52.266Z,23.01
2022-10-06T11:21:26.069Z,22.66
2022-10-06T11:24:19.368Z,22.93
2022-10-06T11:26:49.020Z,22.78
2022-10-06T11:29:50.573Z,22.95
2022-10-06T11:32:56.513Z,22.76
2022-10-06T11:35:29.199Z,21.40
2022-10-06T11:38:01.743Z,22.67
2022-10-06T11:40:31.741Z,22.82
2022-10-06T11:43:27.902Z,23.04
2022-10-06T11:46:14.165Z,22.42
2022-10-06T11:48:42.452Z,22.74
2022-10-06T11:51:24.052Z,23.15
2022-10-06T11:53:51.444Z,23.18
2022-10-06T11:56:17.998Z,23.48
2022-10-06T11:58:56.711Z,22.62
2022-10-06T12:01:32.880Z,22.64
2022-10-06T12:04:08.986Z,22.83
2022-10-06T12:06:47.638Z,22.97
2022-10-06T12:09:41.367Z,23.13
2022-10-06T12:12:18.896Z,23.31
2022-10-06T12:18:13.999Z,23.42
2022-10-06T12:20:57.972Z,23.49
2022-10-06T12:23:57.488Z,23.26
2022-10-06T12:26:24.016Z,23.57
2022-10-06T12:29:00.671Z,23.16
2022-10-06T12:31:40.347Z,23.67
2022-10-06T12:34:47.857Z,21.28
2022-10-06T12:37:29.489Z,22.77
2022-10-06T12:40:37.070Z,22.97
2022-10-06T12:43:18.053Z,23.03
2022-10-06T12:46:07.553Z,22.65
2022-10-06T12:48:52.349Z,22.86
2022-10-06T12:54:09.807Z,22.53
2022-10-06T12:56:40.020Z,22.46
2022-10-06T12:59:34.221Z,22.56
2022-10-06T13:02:27.588Z,22.71
2022-10-06T13:05:10.489Z,23.05
2022-10-06T13:07:59.170Z,23.07
2022-10-06T13:10:27.015Z,23.00
2022-10-06T13:12:55.471Z,22.33
2022-10-06T13:15:41.530Z,22.40
2022-10-06T13:18:08.053Z,22.28
2022-10-06T13:20:51.272Z,22.30
2022-10-06T13:23:38.984Z,22.32
2022-10-06T13:26:07.189Z,22.77
2022-10-06T13:28:36.587Z,22.76
2022-10-06T13:31:18.898Z,22.49
2022-10-06T13:33:48.594Z,22.45
2022-10-06T13:36:16.433Z,22.37
2022-10-06T13:38:43.145Z,22.27
2022-10-06T13:41:19.278Z,22.17
2022-10-06T13:44:02.965Z,22.11
2022-10-06T13:46:37.926Z,21.74
2022-10-06T13:49:35.687Z,21.70
2022-10-06T13:52:15.499Z,21.66
2022-10-06T13:54:49.695Z,21.74
2022-10-06T13:58:03.504Z,21.59
2022-10-06T14:00:56.010Z,21.60
2022-10-06T14:06:27.900Z,21.29
2022-10-06T14:08:58.560Z,21.48
2022-10-06T14:11:28.922Z,21.49
2022-10-06T14:14:02.274Z,21.20
2022-10-06T14:16:29.609Z,20.90
2022-10-06T14:19:01.634Z,21.25
2022-10-06T14:21:45.729Z,21.17
2022-10-06T14:24:20.927Z,21.12
2022-10-06T14:26:54.916Z,20.67
2022-10-06T14:29:22.357Z,21.10
2022-10-06T14:31:49.428Z,21.09
2022-10-06T14:34:18.634Z,20.41
2022-10-06T14:36:47.933Z,20.94
2022-10-06T14:39:15.901Z,21.02
2022-10-06T14:41:42.643Z,20.96
2022-10-06T14:44:11.424Z,20.94
2022-10-06T14:46:39.962Z,20.58
2022-10-06T14:49:08.661Z,20.48
2022-10-06T14:51:37.307Z,19.80
2022-10-06T14:54:05.410Z,20.30
2022-10-06T14:56:34.205Z,20.51
2022-10-06T14:59:05.167Z,20.31
2022-10-06T15:01:33.668Z,20.28
2022-10-06T15:04:20.972Z,20.19
2022-10-06T15:07:06.580Z,19.74
2022-10-06T15:09:33.214Z,20.07
2022-10-06T15:12:00.046Z,19.98
2022-10-06T15:14:28.563Z,19.58
2022-10-06T15:16:59.074Z,19.20
2022-10-06T15:19:25.874Z,19.62
2022-10-06T15:21:52.519Z,19.43
2022-10-06T15:24:19.801Z,19.42
2022-10-06T15:27:06.458Z,19.44
2022-10-06T15:29:34.792Z,18.79
2022-10-06T15:32:02.812Z,19.12
2022-10-06T15:34:32.009Z,19.02
2022-10-06T15:36:59.388Z,18.85
2022-10-06T15:39:28.598Z,18.71
2022-10-06T15:41:55.480Z,18.63
2022-10-06T15:44:22.325Z,17.97
2022-10-06T15:46:49.980Z,18.36
2022-10-06T15:49:19.998Z,18.25
2022-10-06T15:51:56.577Z,18.17
2022-10-06T15:54:28.304Z,18.02
2022-10-06T15:57:00.391Z,17.65
2022-10-06T15:59:28.818Z,17.88
2022-10-06T16:01:58.323Z,17.86
2022-10-06T16:04:33.012Z,17.81
2022-10-06T16:07:00.690Z,17.69
2022-10-06T16:09:29.931Z,17.50
2022-10-06T16:11:57.809Z,17.23
2022-10-06T16:14:25.639Z,17.50
2022-10-06T16:16:52.907Z,17.37
2022-10-06T16:19:20.186Z,17.06
2022-10-06T16:21:48.789Z,16.51
2022-10-06T16:24:19.867Z,17.26
2022-10-06T16:26:47.489Z,17.20
2022-10-06T16:29:19.439Z,17.17
2022-10-06T16:31:46.488Z,17.05
2022-10-06T16:34:14.045Z,16.77
2022-10-06T16:36:41.258Z,16.67
2022-10-06T16:39:13.212Z,16.78
2022-10-06T16:41:39.818Z,16.97
2022-10-06T16:44:06.574Z,16.99
2022-10-06T16:46:33.601Z,16.91
2022-10-06T16:49:07.409Z,16.68
2022-10-06T16:51:40.324Z,16.78
2022-10-06T16:54:13.892Z,16.55
2022-10-06T16:56:41.616Z,16.63
2022-10-06T16:59:16.778Z,16.49
2022-10-06T17:01:44.725Z,16.06
2022-10-06T17:04:16.294Z,16.56
2022-10-06T17:06:45.868Z,16.49
2022-10-06T17:09:15.085Z,16.40
2022-10-06T17:11:44.042Z,16.40
2022-10-06T17:14:11.427Z,16.49
2022-10-06T17:16:40.193Z,15.98
2022-10-06T17:19:07.118Z,16.19
2022-10-06T17:21:52.953Z,16.34
2022-10-06T17:24:22.701Z,15.72
2022-10-06T17:26:50.090Z,16.06
2022-10-06T17:29:19.490Z,16.05
2022-10-06T17:31:47.399Z,15.32
2022-10-06T17:34:20.362Z,16.19
2022-10-06T17:36:49.139Z,16.13
2022-10-06T17:39:21.330Z,16.26
2022-10-06T17:41:50.790Z,16.23
2022-10-06T17:44:23.189Z,15.87
2022-10-06T17:46:52.543Z,16.18
2022-10-06T17:49:20.921Z,16.13
2022-10-06T17:51:48.259Z,16.16
2022-10-06T17:54:21.016Z,15.23
2022-10-06T17:56:49.505Z,15.85
2022-10-06T17:59:18.680Z,15.76
2022-10-06T18:01:45.576Z,15.61
2022-10-06T18:04:17.446Z,15.66
2022-10-06T18:06:46.294Z,15.58
2022-10-06T18:09:14.719Z,15.15
2022-10-06T18:11:48.149Z,15.19
2022-10-06T18:14:15.921Z,14.91
2022-10-06T18:16:51.035Z,14.61
2022-10-06T18:19:26.225Z,14.46
2022-10-06T18:21:56.523Z,14.29
2022-10-06T18:24:26.230Z,14.01
2022-10-06T18:26:55.976Z,13.67
2022-10-06T18:29:26.980Z,14.03
2022-10-06T18:31:54.375Z,13.99
2022-10-06T18:37:07.875Z,13.72
2022-10-06T18:39:34.676Z,13.69
2022-10-06T18:42:06.313Z,13.76
2022-10-06T18:44:51.606Z,13.58
2022-10-06T18:47:36.773Z,13.78
2022-10-06T18:50:03.619Z,13.70
2022-10-06T18:52:30.580Z,13.56
2022-10-06T18:54:57.175Z,13.60
2022-10-06T18:57:27.617Z,13.60
2022-10-06T18:59:55.087Z,13.54
2022-10-06T19:02:21.824Z,13.58
2022-10-06T19:04:48.595Z,12.99
2022-10-06T19:07:15.246Z,13.25
2022-10-06T19:09:46.682Z,13.32
2022-10-06T19:12:14.265Z,13.36
2022-10-06T19:14:47.353Z,13.25
2022-10-06T19:17:15.396Z,13.32
2022-10-06T19:19:45.369Z,13.27
2022-10-06T19:22:14.352Z,13.25
2022-10-06T19:24:45.093Z,13.10
2022-10-06T19:27:15.327Z,13.04
2022-10-06T19:29:48.396Z,13.10
2022-10-06T19:32:18.205Z,12.96
2022-10-06T19:34:45.062Z,12.87
2022-10-06T19:37:11.739Z,12.81
2022-10-06T19:39:46.471Z,12.94
2022-10-06T19:42:33.315Z,12.79
2022-10-06T19:45:00.390Z,12.80
2022-10-06T19:47:29.035Z,12.77
2022-10-06T19:50:00.533Z,12.65
2022-10-06T19:52:28.891Z,12.29
2022-10-06T19:54:55.461Z,12.73
2022-10-06T19:57:22.028Z,12.67
2022-10-06T19:59:50.980Z,12.39
2022-10-06T20:02:17.615Z,12.02
2022-10-06T20:04:45.396Z,12.20
2022-10-06T20:07:12.027Z,12.27
2022-10-06T20:09:38.766Z,11.94
2022-10-06T20:12:05.972Z,12.18
2022-10-06T20:14:32.583Z,11.51
2022-10-06T20:16:59.245Z,11.96
2022-10-06T20:19:26.021Z,12.09
2022-10-06T20:21:53.304Z,11.57
2022-10-06T20:24:25.760Z,11.82
2022-10-06T20:26:53.751Z,11.87
2022-10-06T20:29:23.325Z,11.87
2022-10-06T20:31:53.839Z,11.75
2022-10-06T20:34:26.134Z,11.50
2022-10-06T20:36:55.904Z,11.77
2022-10-06T20:39:42.765Z,10.95
2022-10-06T20:42:14.827Z,11.64
2022-10-06T20:44:42.979Z,11.59
2022-10-06T20:47:11.218Z,11.56
2022-10-06T20:49:38.020Z,10.79
2022-10-06T20:52:05.925Z,11.45
2022-10-06T20:54:35.152Z,11.44
2022-10-06T20:57:04.842Z,11.34
2022-10-06T20:59:32.115Z,11.26
2022-10-06T21:02:01.953Z,11.23
2022-10-06T21:04:29.108Z,11.25
2022-10-06T21:06:55.808Z,10.77
2022-10-06T21:09:24.235Z,11.16
2022-10-06T21:11:51.813Z,11.16
2022-10-06T21:14:18.481Z,11.09
2022-10-06T21:16:46.653Z,11.06
2022-10-06T21:19:15.688Z,11.06
2022-10-06T21:21:43.814Z,10.88
2022-10-06T21:24:10.537Z,10.82
2022-10-06T21:26:42.651Z,10.35
2022-10-06T21:29:12.852Z,10.04
2022-10-06T21:31:39.863Z,10.57
2022-10-06T21:34:06.558Z,10.07
2022-10-06T21:36:33.129Z,10.29
2022-10-06T21:39:01.437Z,10.49
2022-10-06T21:41:31.965Z,10.48
2022-10-06T21:44:12.786Z,10.36
2022-10-06T21:46:42.522Z,10.43
2022-10-06T21:49:15.494Z,9.99
2022-10-06T21:51:43.950Z,10.25
2022-10-06T21:54:10.582Z,10.41
2022-10-06T21:56:37.480Z,10.37
2022-10-06T21:59:04.749Z,10.34
2022-10-06T22:01:37.171Z,10.44
2022-10-06T22:04:04.703Z,10.41
2022-10-06T22:06:33.084Z,10.11
2022-10-06T22:09:00.478Z,10.10
2022-10-06T22:11:29.678Z,10.20
2022-10-06T22:13:58.882Z,10.34
2022-10-06T22:16:28.005Z,10.30
2022-10-06T22:18:54.977Z,10.31
2022-10-06T22:21:30.907Z,10.30
2022-10-06T22:24:05.599Z,10.24
2022-10-06T22:26:33.973Z,9.69
2022-10-06T22:29:00.919Z,9.43
2022-10-06T22:31:28.590Z,10.03
2022-10-06T22:33:58.800Z,10.01
2022-10-06T22:36:26.790Z,9.80
2022-10-06T22:38:54.288Z,9.88
2022-10-06T22:41:21.189Z,8.98
2022-10-06T22:43:47.900Z,9.13
2022-10-06T22:46:14.751Z,8.75
2022-10-06T22:48:41.891Z,9.46
2022-10-06T22:51:08.871Z,8.49
2022-10-06T22:53:35.522Z,8.58
2022-10-06T22:56:03.965Z,8.99
2022-10-06T22:58:31.282Z,9.04
2022-10-06T23:00:58.073Z,8.66
2022-10-06T23:03:24.890Z,8.52
2022-10-06T23:05:56.388Z,9.20
2022-10-06T23:08:23.530Z,9.15
2022-10-06T23:10:50.463Z,8.96
2022-10-06T23:13:17.379Z,9.22
2022-10-06T23:15:44.047Z,9.24
2022-10-06T23:18:10.747Z,8.74
2022-10-06T23:20:37.476Z,9.25
2022-10-06T23:23:05.140Z,9.25
2022-10-06T23:25:31.857Z,9.04
2022-10-06T23:27:58.467Z,9.04
2022-10-06T23:30:25.125Z,8.88
2022-10-06T23:32:51.703Z,8.59
2022-10-06T23:35:18.391Z,8.99
2022-10-06T23:37:45.188Z,8.87
2022-10-06T23:40:12.079Z,8.89
2022-10-06T23:42:38.678Z,8.42
2022-10-06T23:45:07.651Z,8.74
2022-10-06T23:47:34.261Z,8.33
2022-10-06T23:50:00.812Z,8.74
2022-10-06T23:52:27.729Z,8.69
2022-10-06T23:54:54.316Z,8.45
2022-10-06T23:57:20.856Z,7.85
2022-10-06T23:59:47.404Z,8.82
